Terminal Aerodrome Forecast
Issued by NWS Cleveland, OH

Home | Current Version | Previous Version | Graphics & Text | Print | Product List | Glossary On
Versions: 1 2 3 4 5 6 7 8 9 10 11 12 13 14 15 16 17 18 19 20 21 22 23 24 25 26 27 28
000
FTUS41 KCLE 131600 AAA
TAFYNG
TAF AMD
KYNG 131613Z 1316/1412 31012G20KT P6SM BKN018 BKN025 OVC045
     FM131800 30010G20KT P6SM BKN025 OVC045
     FM132100 32010KT P6SM SCT025 BKN050
     FM140000 00000KT P6SM SKC=

USA.gov is the U.S. government's official web portal to all federal, state and local government web resources and services.